Time;durP1;ratioP1;P1;durP2;ratioP2;P2;SDS_P1;SDS_P2;PMS_P1;PMS_P2;Temp;Humidity;BMP_temperature;BMP_pressure;BME280_temperature;BME280_humidity;BME280_pressure;Samples;Min_cycle;Max_cycle;Signal;HPM_P1;HPM_P2
2021/11/12 00:12:30;;;;;;;13.25;2.45;;;;;;;9.72;100.00;99723.81;5040621;28;20220;-57
2021/11/12 00:15:40;;;;;;;6.00;2.38;;;;;;;9.74;100.00;99720.59;5042471;28;20597;-56
2021/11/12 00:18:44;;;;;;;6.40;2.58;;;;;;;9.78;100.00;99708.03;5047459;28;20098;-57
2021/11/12 00:21:47;;;;;;;8.32;2.60;;;;;;;9.77;100.00;99697.38;5039254;28;20428;-57
2021/11/12 00:24:55;;;;;;;12.40;2.55;;;;;;;9.80;100.00;99697.22;5037040;28;20047;-57
2021/11/12 00:27:59;;;;;;;7.30;2.58;;;;;;;9.80;100.00;99690.88;5039802;28;20044;-57
2021/11/12 00:38:03;;;;;;;21.77;2.45;;;;;;;9.84;100.00;99653.28;5054755;28;20031;-57
2021/11/12 00:47:51;;;;;;;3.17;1.17;;;;;;;9.84;100.00;99613.59;5072467;28;20047;-58
2021/11/12 00:51:08;;;;;;;5.43;1.98;;;;;;;9.86;100.00;99611.09;5072896;28;20354;-57
2021/11/12 00:54:15;;;;;;;3.10;1.08;;;;;;;9.85;100.00;99604.75;5077924;28;20079;-57
2021/11/12 00:57:18;;;;;;;6.75;2.55;;;;;;;9.84;100.00;99592.09;5078729;28;20054;-57
2021/11/12 01:00:23;;;;;;;4.85;2.22;;;;;;;9.81;100.00;99589.53;5072714;28;20071;-57
2021/11/12 01:03:27;;;;;;;9.98;2.70;;;;;;;9.82;100.00;99577.13;5088297;28;20130;-57
2021/11/12 01:06:30;;;;;;;5.05;2.80;;;;;;;9.81;100.00;99570.06;5071651;28;20039;-58
2021/11/12 01:09:34;;;;;;;2.53;1.35;;;;;;;9.78;100.00;99555.09;5072803;28;20086;-56
2021/11/12 01:12:37;;;;;;;4.15;1.42;;;;;;;9.72;100.00;99540.28;5072570;28;20051;-56
2021/11/12 01:15:40;;;;;;;8.65;1.23;;;;;;;9.65;100.00;99542.69;5075068;28;20134;-57
2021/11/12 01:18:43;;;;;;;12.55;1.77;;;;;;;9.63;100.00;99528.50;5073074;28;20051;-58
2021/11/12 01:21:46;;;;;;;9.25;1.88;;;;;;;9.67;100.00;99529.06;5072358;28;20142;-58
2021/11/12 01:24:50;;;;;;;5.93;2.53;;;;;;;9.69;100.00;99512.69;5072534;28;20039;-58
2021/11/12 01:27:53;;;;;;;4.25;1.80;;;;;;;9.68;100.00;99494.47;5072435;28;20193;-57
2021/11/12 01:30:57;;;;;;;3.85;1.33;;;;;;;9.60;100.00;99496.09;5082668;28;20075;-58
2021/11/12 01:34:10;;;;;;;6.95;2.22;;;;;;;9.51;100.00;99507.28;5071871;28;20113;-57
2021/11/12 01:37:19;;;;;;;6.78;2.30;;;;;;;9.46;100.00;99505.19;5072327;28;20056;-57
2021/11/12 01:40:23;;;;;;;5.30;2.10;;;;;;;9.51;100.00;99485.03;5071076;28;20161;-58
2021/11/12 01:43:29;;;;;;;7.93;2.10;;;;;;;9.48;100.00;99469.34;5071685;28;20101;-59
2021/11/12 01:49:56;;;;;;;3.15;1.15;;;;;;;9.53;100.00;99460.34;5071510;28;20098;-58
2021/11/12 01:53:07;;;;;;;7.13;2.17;;;;;;;9.55;100.00;99474.53;5071812;28;20047;-58
2021/11/12 01:59:30;;;;;;;4.85;1.50;;;;;;;9.52;100.00;99472.69;5071573;28;20051;-58
2021/11/12 02:02:33;;;;;;;5.15;2.38;;;;;;;9.44;100.00;99452.81;5071621;28;20097;-57
2021/11/12 02:05:37;;;;;;;5.38;2.30;;;;;;;9.43;100.00;99447.75;5071464;28;20038;-58
2021/11/12 02:08:40;;;;;;;8.27;1.70;;;;;;;9.43;100.00;99458.88;5073419;28;20048;-58
2021/11/12 02:11:45;;;;;;;11.30;3.47;;;;;;;9.50;100.00;99461.28;5072835;28;20120;-59
2021/11/12 02:14:49;;;;;;;5.80;2.20;;;;;;;9.50;100.00;99455.72;5072826;28;20422;-58
2021/11/12 02:18:13;;;;;;;7.80;2.63;;;;;;;9.48;100.00;99449.88;5073040;28;20443;-58
2021/11/12 02:24:34;;;;;;;4.88;2.03;;;;;;;9.44;100.00;99452.09;5070706;28;20047;-58
2021/11/12 02:28:01;;;;;;;5.00;1.25;;;;;;;9.50;100.00;99447.38;5090965;28;20047;-58
2021/11/12 02:31:02;;;;;;;4.05;1.02;;;;;;;9.52;100.00;99431.00;5072897;28;20051;-58
2021/11/12 02:34:10;;;;;;;2.42;1.38;;;;;;;9.54;100.00;99428.50;5072814;28;20047;-59
2021/11/12 02:37:13;;;;;;;8.02;2.22;;;;;;;9.62;100.00;99426.88;5072861;28;20432;-58
2021/11/12 02:40:17;;;;;;;2.50;1.00;;;;;;;9.64;100.00;99413.25;5072780;28;20550;-56
2021/11/12 02:43:20;;;;;;;1.63;1.05;;;;;;;9.67;100.00;99409.53;5072677;28;20055;-59
2021/11/12 02:46:25;;;;;;;1.98;0.57;;;;;;;9.74;100.00;99406.38;5072546;28;20043;-58
2021/11/12 02:49:28;;;;;;;2.63;0.93;;;;;;;9.81;100.00;99414.31;5072655;28;20535;-59
2021/11/12 02:52:31;;;;;;;1.42;0.93;;;;;;;9.82;100.00;99413.06;5072135;28;20554;-57
2021/11/12 02:55:34;;;;;;;7.00;1.10;;;;;;;9.84;100.00;99396.66;5074430;28;20138;-59
2021/11/12 02:58:38;;;;;;;1.05;0.73;;;;;;;9.83;100.00;99379.19;5071950;28;20051;-58
2021/11/12 03:01:46;;;;;;;0.10;0.10;;;;;;;9.81;100.00;99369.81;5072375;28;20527;-59
2021/11/12 03:04:49;;;;;;;1.58;1.10;;;;;;;9.84;100.00;99360.50;5072363;28;20055;-58
2021/11/12 03:07:53;;;;;;;1.70;1.10;;;;;;;9.90;100.00;99355.78;5072336;28;20106;-58
2021/11/12 03:10:56;;;;;;;3.00;1.30;;;;;;;9.90;100.00;99344.66;5072144;28;20085;-58
2021/11/12 03:13:59;;;;;;;4.07;0.95;;;;;;;9.90;100.00;99350.22;5071941;28;20082;-58
2021/11/12 03:17:03;;;;;;;6.18;3.10;;;;;;;9.93;100.00;99360.41;5080772;28;20047;-59
2021/11/12 03:20:08;;;;;;;9.23;1.73;;;;;;;9.98;100.00;99361.72;5072544;28;20039;-58
2021/11/12 03:23:19;;;;;;;5.13;1.77;;;;;;;10.02;100.00;99363.06;5072103;28;20094;-59
2021/11/12 03:26:29;;;;;;;10.88;2.00;;;;;;;10.02;100.00;99363.06;5072211;28;20048;-59
2021/11/12 04:49:51;;;;;;;4.43;0.80;;;;;;;9.93;100.00;99216.53;5075179;28;20086;-59
2021/11/12 05:09:58;;;;;;;1.52;0.52;;;;;;;10.10;100.00;99202.81;5074884;28;20068;-59
2021/11/12 05:13:29;;;;;;;1.75;0.55;;;;;;;10.15;100.00;99199.38;5074664;28;20119;-58
2021/11/12 05:50:11;;;;;;;2.40;1.25;;;;;;;10.12;100.00;99172.53;5073677;28;20143;-57
2021/11/12 05:56:39;;;;;;;6.40;1.10;;;;;;;10.14;100.00;99170.00;5073098;28;20063;-56
2021/11/12 05:59:43;;;;;;;5.18;1.42;;;;;;;10.18;100.00;99170.56;5072172;28;20051;-58
2021/11/12 06:02:46;;;;;;;0.70;0.60;;;;;;;10.22;100.00;99157.19;5073562;28;20046;-56
2021/11/12 06:05:49;;;;;;;6.53;1.60;;;;;;;10.24;100.00;99146.38;5073188;28;20075;-57
2021/11/12 06:08:52;;;;;;;9.32;1.55;;;;;;;10.22;100.00;99143.28;5072563;28;20567;-57
2021/11/12 06:11:56;;;;;;;2.95;0.95;;;;;;;10.20;100.00;99151.34;5073376;28;20039;-57
2021/11/12 06:14:59;;;;;;;4.68;0.93;;;;;;;10.21;100.00;99133.41;5073572;28;20101;-57
2021/11/12 06:18:02;;;;;;;3.60;1.25;;;;;;;10.24;100.00;99135.25;5073421;28;20098;-56
2021/11/12 06:21:05;;;;;;;2.67;0.68;;;;;;;10.26;100.00;99121.59;5073187;28;20067;-58
2021/11/12 06:24:08;;;;;;;1.35;0.95;;;;;;;10.29;100.00;99115.03;5073423;28;20048;-57
2021/11/12 06:27:11;;;;;;;6.72;1.27;;;;;;;10.25;100.00;99103.34;5073117;28;20039;-57
2021/11/12 06:30:13;;;;;;;2.70;1.48;;;;;;;10.26;100.00;99088.19;5073018;28;20055;-57
2021/11/12 06:33:17;;;;;;;10.63;3.22;;;;;;;10.28;100.00;99079.34;5072264;28;20035;-57
2021/11/12 06:36:23;;;;;;;14.85;2.90;;;;;;;10.28;100.00;99085.69;5072611;28;20183;-56
2021/11/12 06:39:26;;;;;;;3.70;1.38;;;;;;;10.26;100.00;99090.97;5072742;28;20098;-56
2021/11/12 06:42:32;;;;;;;2.50;0.95;;;;;;;10.28;100.00;99084.91;5073085;28;20097;-57
2021/11/12 06:52:26;;;;;;;4.13;1.05;;;;;;;10.29;100.00;99092.00;5072797;28;20549;-57
2021/11/12 06:55:29;;;;;;;3.05;1.17;;;;;;;10.27;100.00;99073.00;5072824;28;20035;-57
2021/11/12 06:58:33;;;;;;;1.83;1.42;;;;;;;10.25;100.00;99064.41;5072870;28;20451;-56
2021/11/12 07:01:36;;;;;;;4.18;0.82;;;;;;;10.24;100.00;99057.31;5072369;28;20376;-57
2021/11/12 07:04:40;;;;;;;2.22;0.70;;;;;;;10.21;100.00;99038.81;5072690;28;20093;-57
2021/11/12 07:07:43;;;;;;;2.45;0.73;;;;;;;10.18;100.00;99041.84;5072546;28;20093;-57
2021/11/12 07:10:47;;;;;;;0.95;0.73;;;;;;;10.16;100.00;99045.09;5072578;28;20120;-57
2021/11/12 07:13:50;;;;;;;1.58;1.02;;;;;;;10.13;100.00;99039.75;5072727;28;20043;-57
2021/11/12 07:16:52;;;;;;;1.33;0.65;;;;;;;10.08;100.00;99032.84;5084742;28;20062;-57
2021/11/12 07:19:55;;;;;;;1.55;0.85;;;;;;;9.94;100.00;99017.03;5072631;28;20551;-57
2021/11/12 07:22:58;;;;;;;0.60;0.60;;;;;;;9.87;100.00;99012.66;5072356;28;20621;-56
2021/11/12 07:26:01;;;;;;;2.55;1.00;;;;;;;9.81;100.00;99008.34;5072437;28;20051;-57
2021/11/12 07:29:04;;;;;;;5.18;0.90;;;;;;;9.82;100.00;99018.19;5072319;28;20460;-57
2021/11/12 07:32:08;;;;;;;9.43;1.77;;;;;;;9.89;100.00;99003.84;5072281;28;20075;-57
2021/11/12 07:35:18;;;;;;;1.00;0.70;;;;;;;9.97;100.00;99007.72;5071771;28;20136;-57
2021/11/12 07:38:28;;;;;;;1.52;1.42;;;;;;;10.00;100.00;99003.97;5072933;28;20389;-57
2021/11/12 07:47:44;;;;;;;1.02;0.93;;;;;;;10.14;100.00;99008.66;5080849;28;20075;-56
2021/11/12 07:50:47;;;;;;;4.28;1.70;;;;;;;10.21;100.00;99007.44;5085552;28;20039;-57
2021/11/12 07:53:50;;;;;;;5.00;1.85;;;;;;;10.26;100.00;99015.84;5083957;28;20147;-57
2021/11/12 07:56:54;;;;;;;1.88;0.90;;;;;;;10.33;100.00;99012.59;5071895;28;20112;-57
2021/11/12 07:59:57;;;;;;;6.40;1.98;;;;;;;10.40;100.00;99016.94;5072039;28;20047;-56
2021/11/12 08:03:01;;;;;;;2.75;0.93;;;;;;;10.45;100.00;99007.88;5072053;28;20066;-53
2021/11/12 08:06:06;;;;;;;6.07;1.13;;;;;;;10.51;100.00;99020.59;5072116;28;20048;-57
2021/11/12 08:09:16;;;;;;;0.95;0.40;;;;;;;10.59;100.00;99026.44;5071914;28;20051;-56
2021/11/12 08:12:30;;;;;;;4.78;1.25;;;;;;;10.61;100.00;99030.25;5071882;28;20087;-57
2021/11/12 08:15:45;;;;;;;1.15;1.10;;;;;;;10.66;100.00;99018.41;5072502;28;20561;-56
2021/11/12 08:19:04;;;;;;;0.70;0.50;;;;;;;10.70;100.00;99009.06;5071809;28;20060;-50
2021/11/12 08:22:11;;;;;;;1.08;0.30;;;;;;;10.79;100.00;99006.06;5070561;28;20059;-51
2021/11/12 08:25:26;;;;;;;8.88;0.95;;;;;;;10.83;100.00;99012.19;5074440;28;20047;-50
2021/11/12 08:29:01;;;;;;;0.60;0.35;;;;;;;10.87;100.00;98999.53;5074397;28;20059;-50
2021/11/12 08:32:31;;;;;;;2.70;0.40;;;;;;;10.97;100.00;98994.53;5074990;28;20051;-51
2021/11/12 08:42:07;;;;;;;5.95;0.68;;;;;;;11.05;100.00;98995.56;5074906;28;20393;-51
2021/11/12 08:45:31;;;;;;;4.05;1.73;;;;;;;11.04;100.00;99005.22;5074825;28;20384;-50
2021/11/12 08:51:58;;;;;;;;;;;;;;;11.09;100.00;98968.22;5073798;28;20094;-53
2021/11/12 08:55:07;;;;;;;0.57;0.20;;;;;;;11.13;100.00;98991.81;5074377;28;19920;-52
2021/11/12 08:58:11;;;;;;;3.25;0.70;;;;;;;11.14;100.00;98979.41;5074660;28;20058;-51
2021/11/12 09:01:15;;;;;;;0.38;0.38;;;;;;;11.18;100.00;98981.97;5082621;28;20038;-51
2021/11/12 09:04:18;;;;;;;2.28;0.30;;;;;;;11.22;100.00;98983.25;5090403;28;20131;-52
2021/11/12 09:07:22;;;;;;;1.10;0.88;;;;;;;11.21;100.00;98967.03;5090554;28;20043;-52
2021/11/12 09:10:27;;;;;;;3.08;0.47;;;;;;;11.17;100.00;98963.72;5091183;28;20039;-52
2021/11/12 09:13:38;;;;;;;1.00;0.88;;;;;;;11.18;100.00;98970.81;5092072;28;20035;-52
2021/11/12 09:16:44;;;;;;;7.82;1.52;;;;;;;11.24;100.00;98968.81;5092768;28;20039;-52
2021/11/12 09:19:50;;;;;;;1.25;0.93;;;;;;;11.30;100.00;98961.25;5093111;28;20094;-51
2021/11/12 09:22:54;;;;;;;5.70;0.82;;;;;;;11.33;100.00;98951.84;5090085;28;20557;-52
2021/11/12 09:25:58;;;;;;;0.50;0.30;;;;;;;11.42;100.00;98951.63;5090686;28;20101;-52
2021/11/12 09:29:06;;;;;;;2.13;1.17;;;;;;;11.51;100.00;98943.03;5090377;28;20054;-51
2021/11/12 09:32:09;;;;;;;4.30;0.95;;;;;;;11.57;100.00;98940.25;5089317;28;20070;-52
2021/11/12 09:35:13;;;;;;;1.40;0.57;;;;;;;11.67;100.00;98936.00;5090786;28;20109;-51
2021/11/12 09:38:16;;;;;;;0.88;0.38;;;;;;;11.66;100.00;98926.84;5091103;28;20124;-51
2021/11/12 09:41:20;;;;;;;2.92;0.60;;;;;;;11.67;100.00;98927.63;5092113;28;20380;-51
2021/11/12 09:44:23;;;;;;;12.07;1.20;;;;;;;11.65;100.00;98922.50;5088755;28;20133;-51
2021/11/12 09:47:27;;;;;;;8.75;0.50;;;;;;;11.61;100.00;98924.06;5081095;28;20086;-52
2021/11/12 09:50:32;;;;;;;1.50;0.57;;;;;;;11.56;100.00;98928.34;5074047;28;20101;-51
2021/11/12 09:53:35;;;;;;;12.75;1.17;;;;;;;11.55;100.00;98926.06;5073270;28;20044;-54
2021/11/12 09:56:38;;;;;;;7.68;1.40;;;;;;;11.53;100.00;98923.78;5088487;28;20093;-54
2021/11/12 09:59:50;;;;;;;4.30;0.60;;;;;;;11.53;100.00;98925.81;5092456;28;20121;-53
2021/11/12 10:02:53;;;;;;;;;;;;;;;11.50;100.00;98929.63;5073232;28;20055;-53
2021/11/12 10:05:57;;;;;;;6.10;1.17;;;;;;;11.51;100.00;98926.31;5073126;28;19962;-53
2021/11/12 10:08:59;;;;;;;7.38;1.23;;;;;;;11.56;100.00;98906.06;5073388;28;20051;-55
2021/11/12 10:12:06;;;;;;;0.85;0.45;;;;;;;11.56;100.00;98906.06;5073152;28;20096;-54
2021/11/12 10:15:31;;;;;;;11.30;1.02;;;;;;;11.53;100.00;98901.47;5072728;28;20536;-54
2021/11/12 10:18:33;;;;;;;2.45;1.17;;;;;;;11.55;100.00;98896.16;5072743;28;20034;-53
2021/11/12 10:22:01;;;;;;;5.40;0.77;;;;;;;11.68;100.00;98879.72;5072681;28;20611;-53
2021/11/12 10:25:07;;;;;;;1.52;0.50;;;;;;;11.80;100.00;98886.06;5076790;28;20451;-52
2021/11/12 10:28:11;;;;;;;6.50;0.65;;;;;;;11.87;100.00;98877.16;5088850;28;20132;-52
2021/11/12 10:31:18;;;;;;;3.03;1.05;;;;;;;11.88;100.00;98876.69;5073118;28;20094;-52
2021/11/12 10:34:29;;;;;;;10.20;0.43;;;;;;;11.83;100.00;98873.88;5072477;28;20175;-52
2021/11/12 10:37:33;;;;;;;4.60;0.90;;;;;;;11.80;100.00;98869.31;5073019;28;20051;-51
2021/11/12 10:40:37;;;;;;;0.47;0.47;;;;;;;11.75;100.00;98875.66;5072373;28;20090;-51
2021/11/12 10:43:40;;;;;;;5.95;0.70;;;;;;;11.78;100.00;98855.88;5072385;28;20356;-51
2021/11/12 10:46:44;;;;;;;4.25;0.70;;;;;;;11.75;100.00;98861.72;5071757;28;20043;-52
2021/11/12 10:49:55;;;;;;;0.55;0.40;;;;;;;11.76;100.00;98857.66;5072777;28;20051;-51
2021/11/12 10:53:12;;;;;;;1.02;0.13;;;;;;;11.79;100.00;98856.63;5072232;28;20101;-51
2021/11/12 10:56:15;;;;;;;4.68;1.08;;;;;;;11.74;100.00;98849.78;5076375;28;20043;-51
2021/11/12 10:59:18;;;;;;;4.35;0.93;;;;;;;11.72;100.00;98845.97;5085170;28;20523;-51
2021/11/12 11:02:37;;;;;;;4.78;1.15;;;;;;;11.77;100.00;98843.19;5071723;28;20047;-51
2021/11/12 11:05:47;;;;;;;10.43;0.90;;;;;;;11.86;100.00;98842.94;5072037;28;20052;-52
2021/11/12 11:08:51;;;;;;;2.28;0.70;;;;;;;11.94;100.00;98845.97;5076531;28;20181;-50
2021/11/12 11:11:54;;;;;;;7.60;1.95;;;;;;;12.04;100.00;98841.66;5072062;28;20055;-50
2021/11/12 11:15:23;;;;;;;5.30;2.10;;;;;;;12.15;100.00;98847.97;5072541;28;20098;-50
2021/11/12 11:18:32;;;;;;;1.70;1.08;;;;;;;12.17;100.00;98850.25;5072565;28;20048;-50
2021/11/12 11:21:35;;;;;;;3.70;0.95;;;;;;;12.19;100.00;98850.50;5072021;28;20056;-50
2021/11/12 11:24:38;;;;;;;9.40;0.93;;;;;;;12.19;100.00;98837.28;5072102;28;20113;-50
2021/11/12 11:27:45;;;;;;;7.88;0.98;;;;;;;12.12;100.00;98848.22;5078640;28;20036;-50
2021/11/12 11:30:48;;;;;;;5.70;2.20;;;;;;;12.08;100.00;98842.88;5072380;28;20492;-50
2021/11/12 11:33:53;;;;;;;10.63;2.45;;;;;;;12.01;100.00;98835.06;5072056;28;20106;-51
2021/11/12 11:37:01;;;;;;;12.02;1.00;;;;;;;12.02;100.00;98842.16;5071052;28;20110;-51
2021/11/12 11:40:24;;;;;;;4.53;1.00;;;;;;;12.01;100.00;98840.66;5071975;28;20550;-51
2021/11/12 11:43:31;;;;;;;1.95;0.65;;;;;;;12.08;100.00;98834.53;5071797;28;20048;-51
2021/11/12 11:46:38;;;;;;;0.40;0.20;;;;;;;12.13;100.00;98833.00;5071186;28;20164;-52
2021/11/12 11:49:49;;;;;;;9.20;0.75;;;;;;;12.12;100.00;98829.47;5071409;28;20082;-52
2021/11/12 11:52:54;;;;;;;14.13;0.70;;;;;;;12.15;100.00;98817.25;5071574;28;20442;-51
2021/11/12 11:56:11;;;;;;;1.70;0.82;;;;;;;12.18;100.00;98810.66;5073136;28;20053;-51
2021/11/12 11:59:28;;;;;;;6.10;0.38;;;;;;;12.22;100.00;98820.78;5091048;28;20090;-51
2021/11/12 12:02:31;;;;;;;6.65;0.20;;;;;;;12.27;100.00;98806.06;5075817;28;20052;-52
2021/11/12 12:06:07;;;;;;;1.35;0.50;;;;;;;12.36;100.00;98814.16;5075373;28;20043;-52
2021/11/12 12:09:13;;;;;;;5.45;0.93;;;;;;;12.46;100.00;98804.22;5090091;28;20141;-52
2021/11/12 12:12:33;;;;;;;17.08;1.00;;;;;;;12.53;100.00;98806.47;5075367;28;20052;-51
2021/11/12 12:15:39;;;;;;;0.65;0.25;;;;;;;12.57;100.00;98798.59;5077093;28;20036;-52
2021/11/12 12:18:47;;;;;;;1.30;0.30;;;;;;;12.51;100.00;98793.03;5079955;28;20044;-52
2021/11/12 12:22:14;;;;;;;2.22;0.50;;;;;;;12.53;100.00;98789.72;5075511;28;20111;-51
2021/11/12 13:21:44;;;;;;;0.20;0.17;;;;;;;12.63;100.00;98721.09;5074224;28;20043;-51
2021/11/12 13:24:52;;;;;;;0.40;0.20;;;;;;;12.64;100.00;98728.22;5074133;28;20051;-50
2021/11/12 13:28:13;;;;;;;1.27;0.38;;;;;;;12.68;100.00;98714.72;5073630;28;20044;-50
2021/11/12 13:31:19;;;;;;;0.38;0.25;;;;;;;12.73;100.00;98719.53;5074521;28;20202;-50
2021/11/12 13:34:23;;;;;;;3.05;0.22;;;;;;;12.71;100.00;98708.84;5073805;28;20044;-51
2021/11/12 13:37:27;;;;;;;1.13;0.55;;;;;;;12.68;100.00;98714.72;5073850;28;20079;-51
2021/11/12 13:40:34;;;;;;;4.47;0.82;;;;;;;12.58;100.00;98710.75;5073306;28;20059;-48
2021/11/12 13:43:45;;;;;;;0.63;0.15;;;;;;;12.52;100.00;98713.56;5072900;28;20169;-50
2021/11/12 13:46:54;;;;;;;0.77;0.17;;;;;;;12.53;100.00;98711.53;5073643;28;20036;-52
2021/11/12 13:50:03;;;;;;;0.95;0.30;;;;;;;12.50;100.00;98710.53;5077554;28;20100;-54
2021/11/12 13:53:07;;;;;;;4.25;0.22;;;;;;;12.42;100.00;98711.59;5080058;28;20043;-53
2021/11/12 13:56:10;;;;;;;0.10;0.10;;;;;;;12.44;100.00;98707.00;5073504;28;20082;-53
2021/11/12 13:59:15;;;;;;;0.55;0.20;;;;;;;12.43;100.00;98694.31;5072946;28;20043;-53
2021/11/12 14:02:19;;;;;;;0.20;0.15;;;;;;;12.48;100.00;98687.19;5073756;28;20047;-54
2021/11/12 14:05:24;;;;;;;3.58;0.55;;;;;;;12.56;100.00;98685.38;5073098;28;20083;-53
2021/11/12 14:08:42;;;;;;;0.10;0.08;;;;;;;12.69;100.00;98689.06;5061213;28;20047;-53
2021/11/12 14:11:46;;;;;;;0.65;0.30;;;;;;;12.77;100.00;98686.50;5072748;28;20140;-49
2021/11/12 14:15:07;;;;;;;0.63;0.45;;;;;;;12.79;100.00;98684.69;5072426;28;20032;-52
2021/11/12 14:22:03;;;;;;;0.85;0.20;;;;;;;12.73;100.00;98686.00;5072120;28;20166;-49
2021/11/12 14:25:24;;;;;;;7.07;0.55;;;;;;;12.68;100.00;98684.00;5073052;28;20066;-50
2021/11/12 14:28:41;;;;;;;9.70;0.73;;;;;;;12.66;100.00;98675.38;5072403;28;20043;-49
2021/11/12 14:32:03;;;;;;;1.75;0.65;;;;;;;12.70;100.00;98675.88;5072729;28;20039;-49
2021/11/12 14:38:20;;;;;;;0.17;0.17;;;;;;;12.70;100.00;98681.44;5089386;28;20051;-47
2021/11/12 14:41:53;;;;;;;0.10;0.00;;;;;;;12.67;100.00;98665.72;5072554;28;20055;-47
2021/11/12 14:52:09;;;;;;;0.13;0.03;;;;;;;12.64;100.00;98677.94;5072891;28;20089;-47
2021/11/12 14:55:13;;;;;;;0.68;0.10;;;;;;;12.59;100.00;98681.53;5073094;28;20094;-47
2021/11/12 14:58:18;;;;;;;0.55;0.10;;;;;;;12.58;100.00;98680.75;5071894;28;20153;-47
2021/11/12 15:01:28;;;;;;;8.35;0.30;;;;;;;12.55;100.00;98675.47;5072037;28;20444;-47
2021/11/12 15:04:32;;;;;;;0.10;0.10;;;;;;;12.52;100.00;98682.84;5072009;28;20531;-49
2021/11/12 15:08:04;;;;;;;0.45;0.25;;;;;;;12.55;100.00;98686.63;5072412;28;20343;-49
2021/11/12 15:10:59;;;;;;;0.50;0.38;;;;;;;12.51;100.00;98672.97;5082813;28;20051;-48
2021/11/12 15:14:11;;;;;;;0.10;0.10;;;;;;;12.48;100.00;98685.16;5071945;28;20145;-48
2021/11/12 15:17:14;;;;;;;3.05;0.28;;;;;;;12.47;100.00;98689.22;5076984;28;20543;-48
2021/11/12 15:20:18;;;;;;;7.55;0.60;;;;;;;12.47;100.00;98680.09;5072432;28;20051;-48
2021/11/12 15:23:37;;;;;;;0.15;0.15;;;;;;;12.51;100.00;98691.75;5071697;28;20381;-48
2021/11/12 15:30:06;;;;;;;2.95;1.15;;;;;;;12.44;100.00;98689.50;5071857;28;20051;-51
2021/11/12 15:33:14;;;;;;;0.90;0.30;;;;;;;12.46;100.00;98703.69;5073484;28;20055;-50
2021/11/12 15:36:18;;;;;;;0.20;0.10;;;;;;;12.40;100.00;98697.38;5075904;28;20060;-50
2021/11/12 15:39:30;;;;;;;0.32;0.20;;;;;;;12.37;100.00;98701.19;5081222;28;20070;-49
2021/11/12 15:48:55;;;;;;;4.68;1.00;;;;;;;12.16;100.00;98689.63;5075425;28;20409;-53
2021/11/12 15:52:06;;;;;;;4.05;0.20;;;;;;;12.17;100.00;98703.06;5075634;28;20048;-57
2021/11/12 16:11:18;;;;;;;2.28;0.38;;;;;;;11.96;100.00;98704.69;5074928;28;20051;-55
2021/11/12 16:14:35;;;;;;;0.40;0.30;;;;;;;11.96;100.00;98715.09;5075644;28;20090;-56
2021/11/12 16:17:44;;;;;;;0.32;0.28;;;;;;;11.93;100.00;98704.97;5083974;28;20396;-55
2021/11/12 16:27:08;;;;;;;2.53;0.13;;;;;;;11.86;100.00;98725.00;5075575;28;20120;-55
2021/11/12 16:30:14;;;;;;;0.65;0.65;;;;;;;11.82;100.00;98730.88;5075347;28;20138;-55
2021/11/12 16:33:18;;;;;;;0.68;0.30;;;;;;;11.84;100.00;98736.69;5075291;28;20056;-55
2021/11/12 16:36:22;;;;;;;4.18;0.32;;;;;;;11.87;100.00;98734.88;5073947;28;20437;-55
2021/11/12 16:39:29;;;;;;;1.67;0.28;;;;;;;11.85;100.00;98732.63;5075131;28;20059;-55
2021/11/12 16:49:00;;;;;;;0.40;0.20;;;;;;;11.83;100.00;98740.75;5083617;28;20092;-53
2021/11/12 17:02:22;;;;;;;7.32;0.80;;;;;;;11.89;100.00;98757.47;5074445;28;20071;-56
2021/11/12 17:05:40;;;;;;;7.80;0.63;;;;;;;11.89;100.00;98766.59;5074353;28;20538;-57
2021/11/12 17:12:19;;;;;;;1.38;0.35;;;;;;;11.88;100.00;98770.66;5074570;28;20082;-57
2021/11/12 17:48:44;;;;;;;6.45;0.77;;;;;;;11.54;100.00;98790.72;5073533;28;20515;-56
2021/11/12 18:15:06;;;;;;;2.70;0.22;;;;;;;11.10;100.00;98830.47;5073030;28;20506;-49
2021/11/12 18:22:06;;;;;;;0.10;0.10;;;;;;;10.99;100.00;98841.56;5082578;28;20469;-48
2021/11/12 21:51:58;;;;;;;0.20;0.10;;;;;;;13.13;100.00;98952.81;5064544;28;20082;-52
2021/11/12 21:55:08;;;;;;;2.70;0.93;;;;;;;13.08;100.00;98965.53;5076840;27;20044;-53
2021/11/12 21:58:13;;;;;;;1.05;0.50;;;;;;;13.05;100.00;98972.16;5063894;28;20043;-52
2021/11/12 22:01:17;;;;;;;6.70;0.30;;;;;;;13.05;100.00;98988.94;5073250;28;20047;-53
2021/11/12 22:04:21;;;;;;;0.17;0.10;;;;;;;13.16;100.00;98988.91;5078422;28;20051;-52
2021/11/12 22:07:32;;;;;;;0.80;0.25;;;;;;;13.32;100.00;98988.06;5076374;28;20130;-52
2021/11/12 22:10:42;;;;;;;0.90;0.20;;;;;;;13.31;100.00;98999.75;5079478;28;20135;-52
2021/11/12 22:13:45;;;;;;;2.78;0.47;;;;;;;13.43;100.00;99001.22;5072871;28;20051;-53
2021/11/12 22:16:48;;;;;;;3.83;0.20;;;;;;;13.23;100.00;98996.72;5084488;28;20051;-53
2021/11/12 22:19:52;;;;;;;0.10;0.10;;;;;;;13.30;100.00;98990.59;5073640;28;20101;-51
2021/11/12 22:22:55;;;;;;;0.43;0.35;;;;;;;13.35;100.00;99005.84;5072784;28;20089;-52
2021/11/12 22:25:59;;;;;;;5.22;0.75;;;;;;;13.14;100.00;98999.06;5073071;28;20516;-52
2021/11/12 22:29:02;;;;;;;0.47;0.30;;;;;;;12.63;100.00;98994.84;5072690;28;20063;-51
2021/11/12 22:32:05;;;;;;;0.10;0.10;;;;;;;12.49;100.00;99002.25;5072761;28;20439;-52
2021/11/12 22:35:09;;;;;;;0.47;0.47;;;;;;;12.87;100.00;98987.44;5072451;28;20071;-51
2021/11/12 22:38:15;;;;;;;0.10;0.10;;;;;;;12.97;100.00;98996.31;5072345;28;20041;-51
2021/11/12 22:41:18;;;;;;;3.20;0.82;;;;;;;12.81;100.00;99006.25;5072483;28;20086;-51
2021/11/12 22:44:21;;;;;;;6.03;0.30;;;;;;;12.59;100.00;99008.31;5083435;28;20388;-52
2021/11/12 22:47:24;;;;;;;0.82;0.15;;;;;;;12.57;100.00;99025.59;5072184;28;20141;-51
2021/11/12 22:50:27;;;;;;;0.32;0.13;;;;;;;12.53;100.00;99019.50;5073014;28;20098;-50
2021/11/12 22:53:31;;;;;;;0.15;0.15;;;;;;;12.67;100.00;99023.25;5072368;28;20090;-51
2021/11/12 22:56:34;;;;;;;2.75;1.40;;;;;;;12.82;100.00;99012.59;5072562;28;20051;-51
2021/11/12 22:59:37;;;;;;;1.17;0.50;;;;;;;12.71;100.00;99012.63;5071996;28;20075;-50
2021/11/12 23:02:39;;;;;;;1.13;0.45;;;;;;;12.77;100.00;99016.16;5072389;28;20566;-50
2021/11/12 23:05:43;;;;;;;0.80;0.38;;;;;;;12.79;100.00;99019.19;5072045;28;20561;-50
2021/11/12 23:08:46;;;;;;;0.25;0.20;;;;;;;12.79;100.00;99019.19;5072107;28;20047;-50
2021/11/12 23:11:49;;;;;;;0.10;0.10;;;;;;;12.80;100.00;99023.50;5071764;28;20047;-51
2021/11/12 23:14:52;;;;;;;0.70;0.20;;;;;;;12.64;100.00;99024.31;5072591;28;20048;-51
2021/11/12 23:17:55;;;;;;;1.08;0.32;;;;;;;13.49;100.00;99033.47;5071893;28;20557;-50
2021/11/12 23:20:58;;;;;;;1.75;0.30;;;;;;;13.54;100.00;99023.53;5084145;28;20097;-51
2021/11/12 23:24:02;;;;;;;2.60;0.43;;;;;;;13.73;100.00;99020.94;5071953;28;20089;-51
2021/11/12 23:27:05;;;;;;;2.20;0.68;;;;;;;13.26;100.00;99040.44;5072051;28;20094;-51
2021/11/12 23:30:09;;;;;;;9.35;0.93;;;;;;;13.23;100.00;99047.06;5071186;28;20043;-50
2021/11/12 23:33:13;;;;;;;4.85;0.82;;;;;;;13.29;100.00;99047.81;5072813;28;20071;-50
2021/11/12 23:36:17;;;;;;;3.67;1.13;;;;;;;13.30;100.00;99060.50;5071617;28;20480;-50
2021/11/12 23:39:21;;;;;;;0.40;0.30;;;;;;;13.23;100.00;99066.63;5071735;28;20503;-50
2021/11/12 23:42:24;;;;;;;1.58;0.22;;;;;;;13.21;100.00;99076.81;5071882;28;20536;-51
2021/11/12 23:45:30;;;;;;;0.10;0.10;;;;;;;13.21;100.00;99083.16;5087122;28;20123;-50
2021/11/12 23:48:33;;;;;;;1.27;0.52;;;;;;;13.31;100.00;99076.03;5071882;28;20337;-50
2021/11/12 23:51:36;;;;;;;0.10;0.10;;;;;;;13.39;100.00;99088.19;5072233;28;20067;-50
2021/11/12 23:54:40;;;;;;;0.50;0.22;;;;;;;13.39;100.00;99085.41;5074158;28;20121;-51
2021/11/12 23:57:45;;;;;;;1.10;1.00;;;;;;;13.48;100.00;99078.75;5076267;28;20085;-51
